Pagrindinis puslapis
METAR-TAF:

METAR-TAF

Oro uostai :

Guangdžou, Kinija

platuma: 23-10N, ilguma: 113-20E, Aukštis: 8 m

Dabartinis oras

Ataskaita buvo paskelbta 12 minutes, ne 14:30 UTC
Vėjas 4 kt iš Rytų/Pietryčių
Temperatūra 27°C
Drėgmė 84%
Slėgis 1009 hPa
Matomumas 10 km arba daugiau
Mažai debesys ne aukštis 1700 ft
Su prošvaistėmis ne aukštis 3600 ft

METAR: ZGGG 291430Z 11002MPS 9999 FEW017 BKN036 27/24 Q1009 NOSIG

Laikas: 22:42 (14:42 UTC)

Prognozė

Ataskaita buvo paskelbta 5 valandos ir 33 minutes, ne 09:09 UTC
Prognozė galioja nuo 29 metu 12 UTC su 30 metu 12 UTC
Vėjas 8 kt iš Pietų
Matomumas: 8000 m
Mažai debesys ne aukštis 2000 ft
Laikinai
nuo 30 metu 04 UTC su 30 metu 10 UTC
Vėjas 12 kt iš Vakarų/Pietvakarių su gūsio iki 21 kt
Matomumas: 2000 m
Išsisklaidę debesys ne aukštis 800 ft
Išsisklaidę debesys ne aukštis 3000 ft, Liūtiniai kamuoliniai debesys.
Su prošvaistėmis ne aukštis 3300 ft
perkūnija, lietus

TAF: ZGGG 290909Z 2912/3012 18004MPS 8000 FEW020 TX30/3007Z TN25/2922Z TEMPO 3004/3010 24006G11MPS 2000 +TSRA SCT008 SCT030CB BKN033

Orai ataskaitas ir orų prognozės (METAR, TAF).

turimą stotys yra geltonos ir raudonos taškus žemėlapyje.

Perkelti pele per norėdami pamatyti stoties vardą.

Tada spustelėkite, norėdami matyti oro stebėjimo ir prognozės.

Norėdami pakeisti žemėlapį: spustelėkite ant žalios mygtukų su juodo kryžiaus žemyn,; žalią mygtuką su brūkšneliu, jei norite nutolinti; arba žalių rodyklių gretimoms žemėlapius.


METAR-TAF: